METAR Data
IDs: Format: Raw Decoded Include TAF

Data at: 0208 UTC 24 Jun 2021

METAR for:KFFT (Frankfort/Capital Ci, KY, US)
Text:KFFT 240153Z AUTO 09004KT 10SM CLR 21/11 A3014 RMK AO2 SLP202 T02060111
Temperature: 20.6°C ( 69°F)
Dewpoint: 11.1°C ( 52°F) [RH = 54%]
Pressure (altimeter):30.14 inches Hg (1020.7 mb) [Sea level pressure: 1020.2 mb]
Winds:from the E (90 degrees) at 5 MPH (4 knots; 2.1 m/s)
Visibility:10 or more sm (16+ km)
Ceiling:at least 12,000 feet AGL
Clouds:sky clear below 12,000 feet AGL
QC Flag:automated observation with no human augmentation